sensor_id;sensor_type;location;lat;lon;timestamp;temperature;humidity
65692;DHT22;52411;52.716;6.696;2022-07-06T00:00:05;12.60;99.90
65692;DHT22;52411;52.716;6.696;2022-07-06T00:02:31;12.60;99.90
65692;DHT22;52411;52.716;6.696;2022-07-06T00:04:57;12.60;99.90
65692;DHT22;52411;52.716;6.696;2022-07-06T00:07:23;12.60;99.90
65692;DHT22;52411;52.716;6.696;2022-07-06T00:09:49;12.60;99.90
65692;DHT22;52411;52.716;6.696;2022-07-06T00:12:15;12.70;99.90
65692;DHT22;52411;52.716;6.696;2022-07-06T00:14:41;12.60;99.90
65692;DHT22;52411;52.716;6.696;2022-07-06T00:17:07;12.60;99.90
65692;DHT22;52411;52.716;6.696;2022-07-06T00:19:32;12.70;99.90
65692;DHT22;52411;52.716;6.696;2022-07-06T00:21:58;12.70;99.90
65692;DHT22;52411;52.716;6.696;2022-07-06T00:24:24;12.70;99.90
65692;DHT22;52411;52.716;6.696;2022-07-06T00:26:50;12.70;99.90
65692;DHT22;52411;52.716;6.696;2022-07-06T00:29:15;12.80;99.90
65692;DHT22;52411;52.716;6.696;2022-07-06T00:31:41;12.90;99.90
65692;DHT22;52411;52.716;6.696;2022-07-06T00:34:07;12.90;99.90
65692;DHT22;52411;52.716;6.696;2022-07-06T00:36:32;13.00;99.90
65692;DHT22;52411;52.716;6.696;2022-07-06T00:38:58;13.10;99.90
65692;DHT22;52411;52.716;6.696;2022-07-06T00:41:24;13.20;99.90
65692;DHT22;52411;52.716;6.696;2022-07-06T00:43:54;13.20;99.90
65692;DHT22;52411;52.716;6.696;2022-07-06T00:46:31;13.30;99.90
65692;DHT22;52411;52.716;6.696;2022-07-06T00:48:57;13.30;99.90
65692;DHT22;52411;52.716;6.696;2022-07-06T00:51:29;13.40;99.90
65692;DHT22;52411;52.716;6.696;2022-07-06T00:53:58;13.40;99.90
65692;DHT22;52411;52.716;6.696;2022-07-06T00:56:26;13.40;99.90
65692;DHT22;52411;52.716;6.696;2022-07-06T00:58:54;13.40;99.90
65692;DHT22;52411;52.716;6.696;2022-07-06T01:01:19;13.40;99.90
65692;DHT22;52411;52.716;6.696;2022-07-06T01:03:45;13.40;99.90
65692;DHT22;52411;52.716;6.696;2022-07-06T01:06:11;13.50;99.90
65692;DHT22;52411;52.716;6.696;2022-07-06T01:08:38;13.50;99.90
65692;DHT22;52411;52.716;6.696;2022-07-06T01:11:03;13.50;99.90
65692;DHT22;52411;52.716;6.696;2022-07-06T01:13:31;13.50;99.90
65692;DHT22;52411;52.716;6.696;2022-07-06T01:15:58;13.50;99.90
65692;DHT22;52411;52.716;6.696;2022-07-06T01:18:24;13.50;99.90
65692;DHT22;52411;52.716;6.696;2022-07-06T01:20:50;13.60;99.90
65692;DHT22;52411;52.716;6.696;2022-07-06T01:23:15;13.50;99.90
65692;DHT22;52411;52.716;6.696;2022-07-06T01:25:41;13.60;99.90
65692;DHT22;52411;52.716;6.696;2022-07-06T01:28:07;13.60;99.90
65692;DHT22;52411;52.716;6.696;2022-07-06T01:30:32;13.50;99.90
65692;DHT22;52411;52.716;6.696;2022-07-06T01:32:58;13.50;99.90
65692;DHT22;52411;52.716;6.696;2022-07-06T01:35:24;13.50;99.90
65692;DHT22;52411;52.716;6.696;2022-07-06T01:37:51;13.60;99.90
65692;DHT22;52411;52.716;6.696;2022-07-06T01:40:17;13.60;99.90
65692;DHT22;52411;52.716;6.696;2022-07-06T01:42:43;13.50;99.90
65692;DHT22;52411;52.716;6.696;2022-07-06T01:45:09;13.60;99.90
65692;DHT22;52411;52.716;6.696;2022-07-06T01:47:35;13.60;99.90
65692;DHT22;52411;52.716;6.696;2022-07-06T01:50:03;13.60;99.90
65692;DHT22;52411;52.716;6.696;2022-07-06T01:52:29;13.60;99.90
65692;DHT22;52411;52.716;6.696;2022-07-06T01:54:57;13.60;99.90
65692;DHT22;52411;52.716;6.696;2022-07-06T01:57:23;13.50;99.90
65692;DHT22;52411;52.716;6.696;2022-07-06T01:59:49;13.50;99.90
65692;DHT22;52411;52.716;6.696;2022-07-06T02:02:14;13.60;99.90
65692;DHT22;52411;52.716;6.696;2022-07-06T02:15:02;13.40;99.90
65692;DHT22;52411;52.716;6.696;2022-07-06T02:17:28;13.40;99.90
65692;DHT22;52411;52.716;6.696;2022-07-06T02:19:53;13.40;99.90
65692;DHT22;52411;52.716;6.696;2022-07-06T02:22:19;13.40;99.90
65692;DHT22;52411;52.716;6.696;2022-07-06T02:24:44;13.40;99.90
65692;DHT22;52411;52.716;6.696;2022-07-06T02:27:10;13.40;99.90
65692;DHT22;52411;52.716;6.696;2022-07-06T02:29:36;13.40;99.90
65692;DHT22;52411;52.716;6.696;2022-07-06T02:32:01;13.40;99.90
65692;DHT22;52411;52.716;6.696;2022-07-06T02:34:27;13.40;99.90
65692;DHT22;52411;52.716;6.696;2022-07-06T02:36:53;13.30;99.90
65692;DHT22;52411;52.716;6.696;2022-07-06T02:39:18;13.30;99.90
65692;DHT22;52411;52.716;6.696;2022-07-06T02:41:44;13.20;99.90
65692;DHT22;52411;52.716;6.696;2022-07-06T02:44:09;13.20;99.90
65692;DHT22;52411;52.716;6.696;2022-07-06T02:46:35;13.20;99.90
65692;DHT22;52411;52.716;6.696;2022-07-06T02:49:00;13.20;99.90
65692;DHT22;52411;52.716;6.696;2022-07-06T02:51:26;13.20;99.90
65692;DHT22;52411;52.716;6.696;2022-07-06T02:53:52;13.20;99.90
65692;DHT22;52411;52.716;6.696;2022-07-06T02:56:17;13.10;99.90
65692;DHT22;52411;52.716;6.696;2022-07-06T02:58:43;13.10;99.90
65692;DHT22;52411;52.716;6.696;2022-07-06T03:01:08;13.00;99.90
65692;DHT22;52411;52.716;6.696;2022-07-06T03:03:34;13.00;99.90
65692;DHT22;52411;52.716;6.696;2022-07-06T03:06:00;13.00;99.90
65692;DHT22;52411;52.716;6.696;2022-07-06T03:08:25;13.00;99.90
65692;DHT22;52411;52.716;6.696;2022-07-06T03:10:51;13.00;99.90
65692;DHT22;52411;52.716;6.696;2022-07-06T03:13:16;13.00;99.90
65692;DHT22;52411;52.716;6.696;2022-07-06T03:15:42;13.00;99.90
65692;DHT22;52411;52.716;6.696;2022-07-06T03:18:07;13.10;99.90
65692;DHT22;52411;52.716;6.696;2022-07-06T03:20:33;13.00;99.90
65692;DHT22;52411;52.716;6.696;2022-07-06T03:22:59;13.10;99.90
65692;DHT22;52411;52.716;6.696;2022-07-06T03:25:24;13.00;99.90
65692;DHT22;52411;52.716;6.696;2022-07-06T03:27:50;13.00;99.90
65692;DHT22;52411;52.716;6.696;2022-07-06T03:30:16;13.00;99.90
65692;DHT22;52411;52.716;6.696;2022-07-06T03:32:41;13.00;99.90
65692;DHT22;52411;52.716;6.696;2022-07-06T03:35:07;13.10;99.90
65692;DHT22;52411;52.716;6.696;2022-07-06T03:37:33;13.10;99.90
65692;DHT22;52411;52.716;6.696;2022-07-06T03:39:59;13.10;99.90
65692;DHT22;52411;52.716;6.696;2022-07-06T03:42:24;13.10;99.90
65692;DHT22;52411;52.716;6.696;2022-07-06T03:44:50;13.10;99.90
65692;DHT22;52411;52.716;6.696;2022-07-06T03:47:15;13.20;99.90
65692;DHT22;52411;52.716;6.696;2022-07-06T03:49:41;13.20;99.90
65692;DHT22;52411;52.716;6.696;2022-07-06T03:52:07;13.20;99.90
65692;DHT22;52411;52.716;6.696;2022-07-06T03:54:32;13.20;99.90
65692;DHT22;52411;52.716;6.696;2022-07-06T03:56:58;13.30;99.90
65692;DHT22;52411;52.716;6.696;2022-07-06T03:59:23;13.20;99.90
65692;DHT22;52411;52.716;6.696;2022-07-06T04:01:49;13.30;99.90
65692;DHT22;52411;52.716;6.696;2022-07-06T04:04:15;13.30;99.90
65692;DHT22;52411;52.716;6.696;2022-07-06T04:06:40;13.30;99.90
65692;DHT22;52411;52.716;6.696;2022-07-06T04:09:06;13.30;99.90
65692;DHT22;52411;52.716;6.696;2022-07-06T04:11:32;13.30;99.90
65692;DHT22;52411;52.716;6.696;2022-07-06T04:13:57;13.30;99.90
65692;DHT22;52411;52.716;6.696;2022-07-06T04:16:23;13.30;99.90
65692;DHT22;52411;52.716;6.696;2022-07-06T04:18:48;13.40;99.90
65692;DHT22;52411;52.716;6.696;2022-07-06T04:21:14;13.40;99.90
65692;DHT22;52411;52.716;6.696;2022-07-06T04:23:40;13.40;99.90
65692;DHT22;52411;52.716;6.696;2022-07-06T04:26:05;13.40;99.90
65692;DHT22;52411;52.716;6.696;2022-07-06T04:28:31;13.40;99.90
65692;DHT22;52411;52.716;6.696;2022-07-06T04:30:57;13.40;99.90
65692;DHT22;52411;52.716;6.696;2022-07-06T04:33:23;13.40;99.90
65692;DHT22;52411;52.716;6.696;2022-07-06T04:35:48;13.40;99.90
65692;DHT22;52411;52.716;6.696;2022-07-06T04:38:14;13.50;99.90
65692;DHT22;52411;52.716;6.696;2022-07-06T04:40:40;13.60;99.90
65692;DHT22;52411;52.716;6.696;2022-07-06T04:43:05;13.60;99.90
65692;DHT22;52411;52.716;6.696;2022-07-06T04:45:31;13.70;99.90
65692;DHT22;52411;52.716;6.696;2022-07-06T04:47:57;13.70;99.90
65692;DHT22;52411;52.716;6.696;2022-07-06T04:50:23;13.80;99.90
65692;DHT22;52411;52.716;6.696;2022-07-06T04:52:48;13.90;99.90
65692;DHT22;52411;52.716;6.696;2022-07-06T04:55:14;14.00;99.90
65692;DHT22;52411;52.716;6.696;2022-07-06T04:57:40;14.10;99.90
65692;DHT22;52411;52.716;6.696;2022-07-06T05:00:07;14.10;99.90
65692;DHT22;52411;52.716;6.696;2022-07-06T05:02:33;14.20;99.90
65692;DHT22;52411;52.716;6.696;2022-07-06T05:04:58;14.20;99.90
65692;DHT22;52411;52.716;6.696;2022-07-06T05:07:24;14.30;99.90
65692;DHT22;52411;52.716;6.696;2022-07-06T05:09:54;14.30;99.90
65692;DHT22;52411;52.716;6.696;2022-07-06T05:12:20;14.40;99.90
65692;DHT22;52411;52.716;6.696;2022-07-06T05:14:45;14.50;99.90
65692;DHT22;52411;52.716;6.696;2022-07-06T05:17:11;14.50;99.90
65692;DHT22;52411;52.716;6.696;2022-07-06T05:19:37;14.50;99.90
65692;DHT22;52411;52.716;6.696;2022-07-06T05:22:03;14.50;99.90
65692;DHT22;52411;52.716;6.696;2022-07-06T05:24:28;14.50;99.90
65692;DHT22;52411;52.716;6.696;2022-07-06T05:26:54;14.40;99.90
65692;DHT22;52411;52.716;6.696;2022-07-06T05:29:20;14.40;99.90
65692;DHT22;52411;52.716;6.696;2022-07-06T05:31:45;14.50;99.90
65692;DHT22;52411;52.716;6.696;2022-07-06T05:34:11;14.50;99.90
65692;DHT22;52411;52.716;6.696;2022-07-06T05:36:36;14.50;99.90
65692;DHT22;52411;52.716;6.696;2022-07-06T05:39:02;14.60;99.90
65692;DHT22;52411;52.716;6.696;2022-07-06T05:41:28;14.70;99.90
65692;DHT22;52411;52.716;6.696;2022-07-06T05:43:53;14.80;99.90
65692;DHT22;52411;52.716;6.696;2022-07-06T05:46:19;14.90;99.90
65692;DHT22;52411;52.716;6.696;2022-07-06T05:48:45;15.10;99.90
65692;DHT22;52411;52.716;6.696;2022-07-06T05:51:29;15.20;99.90
65692;DHT22;52411;52.716;6.696;2022-07-06T05:53:55;15.20;99.90
65692;DHT22;52411;52.716;6.696;2022-07-06T05:56:20;15.30;99.90
65692;DHT22;52411;52.716;6.696;2022-07-06T05:58:46;15.40;99.90
65692;DHT22;52411;52.716;6.696;2022-07-06T06:01:11;15.40;99.90
65692;DHT22;52411;52.716;6.696;2022-07-06T06:03:37;15.50;99.90
65692;DHT22;52411;52.716;6.696;2022-07-06T06:06:03;15.40;99.90
65692;DHT22;52411;52.716;6.696;2022-07-06T06:08:28;15.40;99.90
65692;DHT22;52411;52.716;6.696;2022-07-06T06:10:54;15.40;99.90
65692;DHT22;52411;52.716;6.696;2022-07-06T06:13:20;15.30;99.90
65692;DHT22;52411;52.716;6.696;2022-07-06T06:15:45;15.30;99.90
65692;DHT22;52411;52.716;6.696;2022-07-06T06:18:11;15.50;99.90
65692;DHT22;52411;52.716;6.696;2022-07-06T06:20:37;15.60;99.90
65692;DHT22;52411;52.716;6.696;2022-07-06T06:23:03;15.80;99.90
65692;DHT22;52411;52.716;6.696;2022-07-06T06:25:35;16.00;99.90
65692;DHT22;52411;52.716;6.696;2022-07-06T06:28:04;16.10;99.90
65692;DHT22;52411;52.716;6.696;2022-07-06T06:30:30;16.10;99.90
65692;DHT22;52411;52.716;6.696;2022-07-06T06:33:16;16.10;99.90
65692;DHT22;52411;52.716;6.696;2022-07-06T06:35:46;16.20;99.90
65692;DHT22;52411;52.716;6.696;2022-07-06T06:38:12;16.10;99.90
65692;DHT22;52411;52.716;6.696;2022-07-06T06:40:39;16.10;99.90
65692;DHT22;52411;52.716;6.696;2022-07-06T06:43:05;16.30;99.90
65692;DHT22;52411;52.716;6.696;2022-07-06T06:45:30;16.30;99.90
65692;DHT22;52411;52.716;6.696;2022-07-06T06:47:56;16.30;99.90
65692;DHT22;52411;52.716;6.696;2022-07-06T06:50:22;16.40;99.90
65692;DHT22;52411;52.716;6.696;2022-07-06T06:52:51;16.40;99.90
65692;DHT22;52411;52.716;6.696;2022-07-06T06:55:17;16.40;99.90
65692;DHT22;52411;52.716;6.696;2022-07-06T06:57:44;16.40;99.90
65692;DHT22;52411;52.716;6.696;2022-07-06T07:00:11;16.40;99.90
65692;DHT22;52411;52.716;6.696;2022-07-06T07:02:37;16.50;99.90
65692;DHT22;52411;52.716;6.696;2022-07-06T07:05:04;16.50;99.90
65692;DHT22;52411;52.716;6.696;2022-07-06T07:07:30;16.60;99.90
65692;DHT22;52411;52.716;6.696;2022-07-06T07:09:56;16.70;99.90
65692;DHT22;52411;52.716;6.696;2022-07-06T07:12:22;16.70;99.90
65692;DHT22;52411;52.716;6.696;2022-07-06T07:14:47;16.80;99.90
65692;DHT22;52411;52.716;6.696;2022-07-06T07:17:13;16.90;99.90
65692;DHT22;52411;52.716;6.696;2022-07-06T07:19:39;17.00;99.90
65692;DHT22;52411;52.716;6.696;2022-07-06T07:22:05;17.10;99.90
65692;DHT22;52411;52.716;6.696;2022-07-06T07:24:31;17.00;99.90
65692;DHT22;52411;52.716;6.696;2022-07-06T07:26:57;17.00;99.90
65692;DHT22;52411;52.716;6.696;2022-07-06T07:29:23;17.10;99.90
65692;DHT22;52411;52.716;6.696;2022-07-06T07:31:48;17.10;99.90
65692;DHT22;52411;52.716;6.696;2022-07-06T07:34:14;17.20;99.90
65692;DHT22;52411;52.716;6.696;2022-07-06T07:36:40;17.20;99.90
65692;DHT22;52411;52.716;6.696;2022-07-06T07:39:05;17.00;99.90
65692;DHT22;52411;52.716;6.696;2022-07-06T07:41:31;16.90;99.90
65692;DHT22;52411;52.716;6.696;2022-07-06T07:43:56;16.80;99.90
65692;DHT22;52411;52.716;6.696;2022-07-06T07:46:22;16.70;99.90
65692;DHT22;52411;52.716;6.696;2022-07-06T07:48:48;16.60;99.90
65692;DHT22;52411;52.716;6.696;2022-07-06T07:51:14;16.70;99.90
65692;DHT22;52411;52.716;6.696;2022-07-06T07:53:39;16.70;99.90
65692;DHT22;52411;52.716;6.696;2022-07-06T07:56:05;16.80;99.90
65692;DHT22;52411;52.716;6.696;2022-07-06T07:58:31;16.90;99.90
65692;DHT22;52411;52.716;6.696;2022-07-06T08:00:56;16.90;99.90
65692;DHT22;52411;52.716;6.696;2022-07-06T08:03:22;17.00;99.90
65692;DHT22;52411;52.716;6.696;2022-07-06T08:05:48;17.10;99.90
65692;DHT22;52411;52.716;6.696;2022-07-06T08:08:14;17.20;99.90
65692;DHT22;52411;52.716;6.696;2022-07-06T08:10:41;17.20;99.90
65692;DHT22;52411;52.716;6.696;2022-07-06T08:13:06;17.30;99.90
65692;DHT22;52411;52.716;6.696;2022-07-06T08:15:36;17.50;99.90
65692;DHT22;52411;52.716;6.696;2022-07-06T08:18:03;17.60;99.90
65692;DHT22;52411;52.716;6.696;2022-07-06T09:04:32;18.20;99.90
65692;DHT22;52411;52.716;6.696;2022-07-06T09:06:58;18.30;99.90
65692;DHT22;52411;52.716;6.696;2022-07-06T10:05:50;20.00;99.40
65692;DHT22;52411;52.716;6.696;2022-07-06T10:08:16;20.20;98.70
65692;DHT22;52411;52.716;6.696;2022-07-06T10:10:43;20.30;97.80
65692;DHT22;52411;52.716;6.696;2022-07-06T10:27:14;19.90;97.10
65692;DHT22;52411;52.716;6.696;2022-07-06T10:29:40;19.80;97.00
65692;DHT22;52411;52.716;6.696;2022-07-06T10:32:06;19.80;97.20
65692;DHT22;52411;52.716;6.696;2022-07-06T10:34:33;19.70;97.50
65692;DHT22;52411;52.716;6.696;2022-07-06T10:37:00;19.60;96.40
65692;DHT22;52411;52.716;6.696;2022-07-06T10:39:38;19.70;97.10
65692;DHT22;52411;52.716;6.696;2022-07-06T10:42:42;20.10;96.30
65692;DHT22;52411;52.716;6.696;2022-07-06T10:45:08;20.50;95.70
65692;DHT22;52411;52.716;6.696;2022-07-06T10:47:35;20.40;96.60
65692;DHT22;52411;52.716;6.696;2022-07-06T10:50:02;20.20;96.40
65692;DHT22;52411;52.716;6.696;2022-07-06T10:52:57;20.40;96.10
65692;DHT22;52411;52.716;6.696;2022-07-06T10:55:30;20.50;94.50
65692;DHT22;52411;52.716;6.696;2022-07-06T10:57:56;20.50;94.70
65692;DHT22;52411;52.716;6.696;2022-07-06T11:00:22;20.60;95.00
65692;DHT22;52411;52.716;6.696;2022-07-06T11:02:48;20.50;94.70
65692;DHT22;52411;52.716;6.696;2022-07-06T11:05:39;20.60;94.80
65692;DHT22;52411;52.716;6.696;2022-07-06T11:08:09;20.60;95.00
65692;DHT22;52411;52.716;6.696;2022-07-06T11:10:47;20.30;93.50
65692;DHT22;52411;52.716;6.696;2022-07-06T11:13:29;20.10;94.20
65692;DHT22;52411;52.716;6.696;2022-07-06T11:16:04;19.90;95.50
65692;DHT22;52411;52.716;6.696;2022-07-06T11:18:42;20.10;95.90
65692;DHT22;52411;52.716;6.696;2022-07-06T11:21:23;20.10;95.50
65692;DHT22;52411;52.716;6.696;2022-07-06T11:23:56;20.10;95.60
65692;DHT22;52411;52.716;6.696;2022-07-06T11:26:22;20.10;96.50
65692;DHT22;52411;52.716;6.696;2022-07-06T11:28:48;19.90;95.70
65692;DHT22;52411;52.716;6.696;2022-07-06T11:31:16;20.20;95.10
65692;DHT22;52411;52.716;6.696;2022-07-06T11:33:45;20.40;94.70
65692;DHT22;52411;52.716;6.696;2022-07-06T11:36:15;20.70;93.20
65692;DHT22;52411;52.716;6.696;2022-07-06T11:38:42;20.90;93.40
65692;DHT22;52411;52.716;6.696;2022-07-06T11:41:08;20.90;93.10
65692;DHT22;52411;52.716;6.696;2022-07-06T11:43:34;20.70;93.80
65692;DHT22;52411;52.716;6.696;2022-07-06T11:46:00;20.50;94.50
65692;DHT22;52411;52.716;6.696;2022-07-06T11:48:25;20.30;94.90
65692;DHT22;52411;52.716;6.696;2022-07-06T11:50:59;20.30;95.70
65692;DHT22;52411;52.716;6.696;2022-07-06T11:53:25;20.20;95.50
65692;DHT22;52411;52.716;6.696;2022-07-06T11:55:51;20.20;94.50
65692;DHT22;52411;52.716;6.696;2022-07-06T11:58:21;20.30;94.90
65692;DHT22;52411;52.716;6.696;2022-07-06T12:01:04;20.30;94.40
65692;DHT22;52411;52.716;6.696;2022-07-06T12:03:29;20.50;94.90
65692;DHT22;52411;52.716;6.696;2022-07-06T12:05:55;20.50;95.40
65692;DHT22;52411;52.716;6.696;2022-07-06T12:08:21;20.50;95.00
65692;DHT22;52411;52.716;6.696;2022-07-06T12:10:46;20.70;95.80
65692;DHT22;52411;52.716;6.696;2022-07-06T12:13:12;20.80;95.30
65692;DHT22;52411;52.716;6.696;2022-07-06T12:15:38;20.70;95.60
65692;DHT22;52411;52.716;6.696;2022-07-06T12:18:03;20.60;95.60
65692;DHT22;52411;52.716;6.696;2022-07-06T12:20:29;20.70;95.80
65692;DHT22;52411;52.716;6.696;2022-07-06T12:23:02;21.20;95.60
65692;DHT22;52411;52.716;6.696;2022-07-06T12:25:35;21.40;94.90
65692;DHT22;52411;52.716;6.696;2022-07-06T12:28:01;21.20;94.40
65692;DHT22;52411;52.716;6.696;2022-07-06T12:30:27;21.10;94.80
65692;DHT22;52411;52.716;6.696;2022-07-06T12:33:14;20.80;95.40
65692;DHT22;52411;52.716;6.696;2022-07-06T12:35:41;20.80;95.30
65692;DHT22;52411;52.716;6.696;2022-07-06T12:38:08;21.20;95.20
65692;DHT22;52411;52.716;6.696;2022-07-06T12:40:35;21.30;95.00
65692;DHT22;52411;52.716;6.696;2022-07-06T12:43:03;21.00;94.90
65692;DHT22;52411;52.716;6.696;2022-07-06T12:45:30;20.70;94.60
65692;DHT22;52411;52.716;6.696;2022-07-06T12:48:04;20.70;94.70
65692;DHT22;52411;52.716;6.696;2022-07-06T12:50:36;20.60;94.10
65692;DHT22;52411;52.716;6.696;2022-07-06T12:53:04;20.50;95.30
65692;DHT22;52411;52.716;6.696;2022-07-06T12:55:30;20.80;94.80
65692;DHT22;52411;52.716;6.696;2022-07-06T12:57:57;21.10;94.60
65692;DHT22;52411;52.716;6.696;2022-07-06T13:00:23;21.10;95.00
65692;DHT22;52411;52.716;6.696;2022-07-06T13:02:51;21.30;94.60
65692;DHT22;52411;52.716;6.696;2022-07-06T13:05:25;21.10;93.50
65692;DHT22;52411;52.716;6.696;2022-07-06T13:07:55;20.90;93.40
65692;DHT22;52411;52.716;6.696;2022-07-06T13:10:22;20.70;94.10
65692;DHT22;52411;52.716;6.696;2022-07-06T13:12:49;20.80;93.90
65692;DHT22;52411;52.716;6.696;2022-07-06T13:15:15;20.90;94.40
65692;DHT22;52411;52.716;6.696;2022-07-06T13:17:42;21.20;94.10
65692;DHT22;52411;52.716;6.696;2022-07-06T13:20:10;21.50;93.30
65692;DHT22;52411;52.716;6.696;2022-07-06T13:22:37;21.80;93.00
65692;DHT22;52411;52.716;6.696;2022-07-06T13:25:03;21.50;92.00
65692;DHT22;52411;52.716;6.696;2022-07-06T13:27:28;21.40;92.20
65692;DHT22;52411;52.716;6.696;2022-07-06T13:29:54;21.30;92.40
65692;DHT22;52411;52.716;6.696;2022-07-06T13:32:20;21.40;92.50
65692;DHT22;52411;52.716;6.696;2022-07-06T13:34:47;21.30;92.10
65692;DHT22;52411;52.716;6.696;2022-07-06T13:37:13;21.20;93.20
65692;DHT22;52411;52.716;6.696;2022-07-06T13:39:38;21.30;92.70
65692;DHT22;52411;52.716;6.696;2022-07-06T13:42:04;21.90;93.50
65692;DHT22;52411;52.716;6.696;2022-07-06T13:44:30;21.90;92.60
65692;DHT22;52411;52.716;6.696;2022-07-06T13:46:56;21.40;92.60
65692;DHT22;52411;52.716;6.696;2022-07-06T13:49:22;21.00;92.80
65692;DHT22;52411;52.716;6.696;2022-07-06T13:51:47;20.70;93.00
65692;DHT22;52411;52.716;6.696;2022-07-06T13:54:13;20.70;94.20
65692;DHT22;52411;52.716;6.696;2022-07-06T13:56:39;20.70;94.50
65692;DHT22;52411;52.716;6.696;2022-07-06T13:59:06;20.60;94.40
65692;DHT22;52411;52.716;6.696;2022-07-06T14:01:32;20.70;94.00
65692;DHT22;52411;52.716;6.696;2022-07-06T14:03:58;20.80;94.60
65692;DHT22;52411;52.716;6.696;2022-07-06T14:06:23;20.80;93.40
65692;DHT22;52411;52.716;6.696;2022-07-06T14:08:49;20.90;93.20
65692;DHT22;52411;52.716;6.696;2022-07-06T14:11:15;20.80;93.00
65692;DHT22;52411;52.716;6.696;2022-07-06T14:13:41;20.90;93.10
65692;DHT22;52411;52.716;6.696;2022-07-06T14:16:07;20.80;92.20
65692;DHT22;52411;52.716;6.696;2022-07-06T14:18:33;20.70;92.00
65692;DHT22;52411;52.716;6.696;2022-07-06T14:20:59;20.60;91.40
65692;DHT22;52411;52.716;6.696;2022-07-06T14:23:26;20.50;91.20
65692;DHT22;52411;52.716;6.696;2022-07-06T14:25:52;20.50;91.10
65692;DHT22;52411;52.716;6.696;2022-07-06T14:28:18;20.30;91.30
65692;DHT22;52411;52.716;6.696;2022-07-06T14:30:45;20.20;91.40
65692;DHT22;52411;52.716;6.696;2022-07-06T14:33:11;20.20;91.20
65692;DHT22;52411;52.716;6.696;2022-07-06T14:35:40;20.10;90.20
65692;DHT22;52411;52.716;6.696;2022-07-06T14:38:06;20.10;90.80
65692;DHT22;52411;52.716;6.696;2022-07-06T14:40:33;20.10;91.10
65692;DHT22;52411;52.716;6.696;2022-07-06T14:42:59;20.00;90.80
65692;DHT22;52411;52.716;6.696;2022-07-06T14:45:25;19.90;91.30
65692;DHT22;52411;52.716;6.696;2022-07-06T14:47:51;19.90;91.20
65692;DHT22;52411;52.716;6.696;2022-07-06T14:50:17;19.90;91.60
65692;DHT22;52411;52.716;6.696;2022-07-06T14:52:43;19.90;91.80
65692;DHT22;52411;52.716;6.696;2022-07-06T14:55:09;20.00;92.20
65692;DHT22;52411;52.716;6.696;2022-07-06T14:57:35;20.00;92.70
65692;DHT22;52411;52.716;6.696;2022-07-06T15:00:02;20.00;92.60
65692;DHT22;52411;52.716;6.696;2022-07-06T15:02:27;20.00;92.60
65692;DHT22;52411;52.716;6.696;2022-07-06T15:04:53;19.90;92.30
65692;DHT22;52411;52.716;6.696;2022-07-06T15:07:19;20.00;92.90
65692;DHT22;52411;52.716;6.696;2022-07-06T15:09:44;20.00;93.00
65692;DHT22;52411;52.716;6.696;2022-07-06T15:12:10;19.90;93.40
65692;DHT22;52411;52.716;6.696;2022-07-06T15:14:36;20.00;93.60
65692;DHT22;52411;52.716;6.696;2022-07-06T15:17:02;19.90;93.30
65692;DHT22;52411;52.716;6.696;2022-07-06T15:19:28;20.00;93.30
65692;DHT22;52411;52.716;6.696;2022-07-06T15:21:54;20.00;93.60
65692;DHT22;52411;52.716;6.696;2022-07-06T15:24:20;20.00;94.00
65692;DHT22;52411;52.716;6.696;2022-07-06T15:26:46;20.00;94.20
65692;DHT22;52411;52.716;6.696;2022-07-06T15:29:12;20.00;93.80
65692;DHT22;52411;52.716;6.696;2022-07-06T15:31:38;19.90;94.20
65692;DHT22;52411;52.716;6.696;2022-07-06T15:34:04;19.90;94.10
65692;DHT22;52411;52.716;6.696;2022-07-06T15:36:29;19.80;93.90
65692;DHT22;52411;52.716;6.696;2022-07-06T15:38:55;19.70;94.40
65692;DHT22;52411;52.716;6.696;2022-07-06T15:41:21;19.50;94.50
65692;DHT22;52411;52.716;6.696;2022-07-06T15:43:47;19.50;94.10
65692;DHT22;52411;52.716;6.696;2022-07-06T15:46:12;19.40;94.80
65692;DHT22;52411;52.716;6.696;2022-07-06T15:48:38;19.30;94.60
65692;DHT22;52411;52.716;6.696;2022-07-06T15:51:04;19.30;95.10
65692;DHT22;52411;52.716;6.696;2022-07-06T15:53:30;19.40;95.30
65692;DHT22;52411;52.716;6.696;2022-07-06T15:55:57;19.40;95.50
65692;DHT22;52411;52.716;6.696;2022-07-06T15:58:23;19.50;96.00
65692;DHT22;52411;52.716;6.696;2022-07-06T16:00:51;19.40;96.30
65692;DHT22;52411;52.716;6.696;2022-07-06T16:03:16;19.30;96.20
65692;DHT22;52411;52.716;6.696;2022-07-06T16:05:42;19.30;96.10
65692;DHT22;52411;52.716;6.696;2022-07-06T16:08:08;19.20;96.50
65692;DHT22;52411;52.716;6.696;2022-07-06T16:10:34;19.10;96.80
65692;DHT22;52411;52.716;6.696;2022-07-06T16:13:00;19.10;97.20
65692;DHT22;52411;52.716;6.696;2022-07-06T16:15:26;19.20;97.30
65692;DHT22;52411;52.716;6.696;2022-07-06T16:17:51;19.10;97.10
65692;DHT22;52411;52.716;6.696;2022-07-06T16:20:18;18.90;98.50
65692;DHT22;52411;52.716;6.696;2022-07-06T16:22:44;18.60;99.90
65692;DHT22;52411;52.716;6.696;2022-07-06T16:25:11;18.30;99.90
65692;DHT22;52411;52.716;6.696;2022-07-06T16:27:37;18.10;99.90
65692;DHT22;52411;52.716;6.696;2022-07-06T16:30:07;17.90;99.90
65692;DHT22;52411;52.716;6.696;2022-07-06T16:32:33;17.80;99.90
65692;DHT22;52411;52.716;6.696;2022-07-06T16:34:59;17.50;99.90
65692;DHT22;52411;52.716;6.696;2022-07-06T16:37:24;17.30;99.90
65692;DHT22;52411;52.716;6.696;2022-07-06T16:39:50;17.10;99.90
65692;DHT22;52411;52.716;6.696;2022-07-06T16:42:16;17.00;99.90
65692;DHT22;52411;52.716;6.696;2022-07-06T16:44:43;17.00;99.90
65692;DHT22;52411;52.716;6.696;2022-07-06T16:47:09;16.90;99.90
65692;DHT22;52411;52.716;6.696;2022-07-06T16:57:17;16.60;99.90
65692;DHT22;52411;52.716;6.696;2022-07-06T17:02:18;16.60;99.90
65692;DHT22;52411;52.716;6.696;2022-07-06T17:07:23;16.60;99.90
65692;DHT22;52411;52.716;6.696;2022-07-06T17:09:49;16.60;99.90
65692;DHT22;52411;52.716;6.696;2022-07-06T17:12:17;16.60;99.90
65692;DHT22;52411;52.716;6.696;2022-07-06T17:14:44;16.60;99.90
65692;DHT22;52411;52.716;6.696;2022-07-06T17:17:10;16.60;99.90
65692;DHT22;52411;52.716;6.696;2022-07-06T17:19:35;16.60;99.90
65692;DHT22;52411;52.716;6.696;2022-07-06T17:22:01;16.60;99.90
65692;DHT22;52411;52.716;6.696;2022-07-06T17:24:27;16.60;99.90
65692;DHT22;52411;52.716;6.696;2022-07-06T17:30:38;16.60;99.90
65692;DHT22;52411;52.716;6.696;2022-07-06T17:33:04;16.60;99.90
65692;DHT22;52411;52.716;6.696;2022-07-06T17:43:06;16.80;99.90
65692;DHT22;52411;52.716;6.696;2022-07-06T17:49:41;16.80;99.90
65692;DHT22;52411;52.716;6.696;2022-07-06T17:52:31;16.70;99.90
65692;DHT22;52411;52.716;6.696;2022-07-06T17:54:56;16.70;99.90
65692;DHT22;52411;52.716;6.696;2022-07-06T17:57:22;16.60;99.90
65692;DHT22;52411;52.716;6.696;2022-07-06T17:59:48;16.60;99.90